KDED/DED METAR and TAF weather

Enter ICAO airport designator
Station Type Date Time Source
KDED METAR 2022/12/08 12:30 UTC NOAA

KDED 081230Z AUTO 30004KT 10SM CLR 16/15 A3024 RMK AO2 T01550149


Station Type Date Time Source
KDED Decoded METAR 2022/12/08 12:30 UTC NOAA

Station name not available
Dec 08, 2022 - 07:30 AM EST / 2022.12.08 1230 UTC
Wind: from the WNW (300 degrees) at 5 MPH (4 KT):0
Visibility: 10 mile(s):0
Sky conditions: clear
Temperature: 59.9 F (15.5 C)
Dew Point: 58.8 F (14.9 C)
Relative Humidity: 96%
Pressure (altimeter): 30.24 in. Hg (1024 hPa)
ob: KDED 081230Z AUTO 30004KT 10SM CLR 16/15 A3024 RMK AO2 T01550149
cycle: 12

Station Type Date Time Source
KDED TAF UTC NOAA

Error!

Example: see airport list